Atlanta, Georgia
Traffic Map
Current Weather Conditions
Atlanta, Georgia
Overcast Thunderstorm
Overcast
79°
Feels Like: 82°
Wind Chill: 79° Ceiling: 8000
Heat Index: 82° Visibility: 10mi
Dew Point: 73° Wind: 0mph
Humidity: 83% Direction: ° ()
Pressure: 30.13in Gusts: 0mph
Raw Report DataKATL 310215Z 00000KT 10SM TS FEW010 SCT038CB BKN080 OVC200 26/23 A3013 RMK AO2 TSB15 CONS LTGICCGCA SW-NW TS VC SW-NW MOV NE
Traffic Incident Summary
Active as of:
Severity:
Category:
InformationThere was an issue retrieving the traffic information for this location. Please try a different location or try again shortly.
Advertisements
Track Severe Weather on mobile